Time;durP1;ratioP1;P1;durP2;ratioP2;P2;SDS_P1;SDS_P2;PMS_P1;PMS_P2;Temp;Humidity;BMP_temperature;BMP_pressure;BME280_temperature;BME280_humidity;BME280_pressure;Samples;Min_cycle;Max_cycle;Signal;HPM_P1;HPM_P2
2023/01/09 06:22:25;;;;;;;46.42;30.23;;;;;;;;;;4880745;29;20397;-89
2023/01/09 06:24:51;;;;;;;30.80;21.95;;;;;;;;;;4863890;29;20182;-92
2023/01/09 06:27:17;;;;;;;34.05;22.67;;;;;;;;;;4863914;29;20029;-92
2023/01/09 06:29:43;;;;;;;38.78;25.17;;;;;;;;;;4863901;29;20124;-91
2023/01/09 06:32:09;;;;;;;51.35;30.80;;;;;;;;;;4863920;29;20477;-92
2023/01/09 06:34:35;;;;;;;36.63;25.80;;;;;;;;;;4863744;29;20033;-91
2023/01/09 06:37:01;;;;;;;39.28;27.60;;;;;;;;;;4849512;29;20063;-91
2023/01/09 06:39:28;;;;;;;44.60;29.33;;;;;;;;;;4864622;29;20061;-91
2023/01/09 06:41:54;;;;;;;47.65;32.40;;;;;;;;;;4864599;29;20036;-92
2023/01/09 06:44:20;;;;;;;49.17;33.83;;;;;;;;;;4871107;29;20025;-91
2023/01/09 06:46:46;;;;;;;46.83;31.73;;;;;;;;;;4867503;29;20032;-92
2023/01/09 06:49:13;;;;;;;40.72;27.50;;;;;;;;;;4867260;29;20060;-92
2023/01/09 06:51:39;;;;;;;33.67;22.67;;;;;;;;;;4867516;29;20029;-92
2023/01/09 06:54:05;;;;;;;28.90;19.92;;;;;;;;;;4867482;29;20033;-92
2023/01/09 06:56:31;;;;;;;26.83;19.25;;;154.10;2252.80;;;;;;4867499;29;20060;-92
2023/01/09 06:58:57;;;;;;;27.70;20.00;;;154.00;2252.80;;;;;;4867291;29;20065;-92
2023/01/09 07:01:23;;;;;;;36.58;23.27;;;154.00;2252.80;;;;;;4867174;29;20056;-92
2023/01/09 07:03:48;;;;;;;34.15;21.95;;;154.00;2252.80;;;;;;4867659;29;20065;-90
2023/01/09 07:06:14;;;;;;;31.45;21.88;;;154.00;2252.80;;;;;;4867110;29;20071;-91
2023/01/09 07:08:40;;;;;;;27.92;19.90;;;154.20;2252.80;;;;;;4867320;29;20029;-91
2023/01/09 07:11:06;;;;;;;25.27;19.00;;;154.20;2252.80;;;;;;4867182;29;20025;-92
2023/01/09 07:13:32;;;;;;;36.13;22.88;;;154.20;2252.80;;;;;;4867098;29;20025;-93
2023/01/09 07:15:58;;;;;;;30.58;21.83;;;;;;;;;;4866583;29;20037;-91
2023/01/09 07:18:24;;;;;;;40.83;27.02;;;154.40;2252.80;;;;;;4882531;29;20489;-92
2023/01/09 07:20:51;;;;;;;89.18;48.20;;;154.30;2252.80;;;;;;4882561;29;20087;-92
2023/01/09 07:23:17;;;;;;;106.50;61.03;;;154.20;2252.80;;;;;;4882756;29;20029;-92
2023/01/09 07:25:43;;;;;;;96.97;57.03;;;154.20;2252.80;;;;;;4882365;29;20066;-92
2023/01/09 07:28:09;;;;;;;77.28;49.08;;;154.20;2252.80;;;;;;4882050;29;20033;-92
2023/01/09 07:30:35;;;;;;;65.50;43.42;;;154.30;2252.80;;;;;;4866291;29;20100;-92
2023/01/09 07:33:01;;;;;;;64.65;42.47;;;154.40;2252.80;;;;;;4866503;29;20462;-92
2023/01/09 07:35:27;;;;;;;62.65;39.50;;;154.40;2252.80;;;;;;4864101;29;20084;-92
2023/01/09 07:37:52;;;;;;;62.83;40.30;;;154.40;2252.80;;;;;;4848331;29;20037;-92
2023/01/09 07:40:18;;;;;;;95.10;52.95;;;154.50;2252.80;;;;;;4847741;29;20125;-90
2023/01/09 07:42:44;;;;;;;73.10;42.22;;;154.50;2252.80;;;;;;4848319;29;20030;-92
2023/01/09 07:45:10;;;;;;;75.72;42.00;;;179.30;2252.80;;;;;;4848086;29;20455;-93
2023/01/09 07:47:38;;;;;;;78.15;45.45;;;179.30;2252.80;;;;;;4846942;29;20042;-90
2023/01/09 07:50:04;;;;;;;55.03;36.55;;;179.30;2252.80;;;;;;4847918;29;20068;-90
2023/01/09 07:52:29;;;;;;;44.67;31.13;;;179.30;2252.80;;;;;;4847995;29;20434;-91
2023/01/09 07:54:55;;;;;;;40.60;30.08;;;179.40;2252.80;;;;;;4847873;29;20038;-90
2023/01/09 07:57:21;;;;;;;42.60;28.23;;;179.40;2252.80;;;;;;4847791;29;20030;-90
2023/01/09 07:59:47;;;;;;;37.15;25.45;;;179.50;2252.80;;;;;;4847783;29;20065;-90
2023/01/09 08:02:13;;;;;;;31.15;22.27;;;;;;;;;;4847550;29;20060;-90
2023/01/09 08:04:39;;;;;;;44.22;24.73;;;;;;;;;;4847831;29;20026;-91
2023/01/09 08:07:05;;;;;;;32.58;24.42;;;180.00;2252.80;;;;;;4847885;29;20022;-91
2023/01/09 08:09:31;;;;;;;35.17;23.88;;;;;;;;;;4847870;29;20390;-91
2023/01/09 08:11:57;;;;;;;34.40;23.33;;;;;;;;;;4847705;29;20022;-92
2023/01/09 08:14:23;;;;;;;33.35;23.20;;;;;;;;;;4847756;29;20098;-91
2023/01/09 08:16:49;;;;;;;34.30;23.83;;;;;;;;;;4847580;29;20068;-91
2023/01/09 08:19:15;;;;;;;32.17;20.92;;;;;;;;;;4847721;29;20022;-91
2023/01/09 08:21:41;;;;;;;29.67;22.58;;;;;;;;;;4867303;29;20025;-89
2023/01/09 08:24:09;;;;;;;37.80;25.33;;;;;;;;;;4870566;29;20060;-87
2023/01/09 08:26:35;;;;;;;36.10;25.35;;;;;;;;;;4860608;29;20542;-91
2023/01/09 08:29:01;;;;;;;33.85;23.85;;;;;;;;;;4847649;29;20032;-91
2023/01/09 08:31:27;;;;;;;29.02;21.00;;;;;;;;;;4847544;29;20053;-90
2023/01/09 08:33:53;;;;;;;35.75;23.35;;;;;;;;;;4847110;29;20113;-89
2023/01/09 08:36:19;;;;;;;36.42;23.85;;;;;;;;;;4847418;29;20044;-89
2023/01/09 08:38:45;;;;;;;45.28;26.75;;;;;;;;;;4847163;29;20480;-90
2023/01/09 08:49:26;;;;;;;45.53;31.17;;;;;;;;;;4863837;29;20401;-90
2023/01/09 08:51:51;;;;;;;65.40;49.17;;;204.90;2252.80;;;;;;4847201;29;20033;-91
2023/01/09 08:54:17;;;;;;;50.58;38.90;;;204.90;2252.80;;;;;;4847274;29;20101;-92
2023/01/09 08:56:43;;;;;;;39.08;31.63;;;;;;;;;;4847046;29;20030;-91
2023/01/09 08:59:10;;;;;;;32.78;24.40;;;;;;;;;;4846719;29;20128;-91
2023/01/09 09:01:36;;;;;;;36.38;26.10;;;205.10;2252.80;;;;;;4846604;29;20140;-90
2023/01/09 09:04:04;;;;;;;34.58;23.98;;;205.00;2252.80;;;;;;4846742;29;20074;-90
2023/01/09 09:06:31;;;;;;;28.52;18.92;;;205.20;2252.80;;;;;;4846867;29;20069;-91
2023/01/09 09:09:01;;;;;;;27.45;17.58;;;;;;;;;;4846816;29;20060;-93
2023/01/09 09:11:31;;;;;;;23.58;16.98;;;205.60;2252.80;;;;;;4846754;29;20511;-91
2023/01/09 09:13:57;;;;;;;28.17;15.55;;;230.40;2252.80;;;;;;4846638;29;20026;-92
2023/01/09 09:16:24;;;;;;;25.00;17.25;;;230.50;2252.80;;;;;;4846514;29;20390;-90
2023/01/09 09:18:50;;;;;;;26.55;18.73;;;230.50;2252.80;;;;;;4846581;29;20030;-91
2023/01/09 09:21:16;;;;;;;21.73;14.85;;;230.60;2252.80;;;;;;4846650;29;20035;-91
2023/01/09 09:23:43;;;;;;;19.73;15.57;;;230.60;2252.80;;;;;;4846562;29;20485;-91
2023/01/09 09:26:09;;;;;;;21.10;16.00;;;230.70;2252.80;;;;;;4846452;29;20045;-90
2023/01/09 09:28:35;;;;;;;24.65;14.38;;;230.80;2252.80;;;;;;4846547;29;20025;-91
2023/01/09 09:31:03;;;;;;;26.42;16.55;;;230.90;2252.80;;;;;;4846710;29;20040;-88
2023/01/09 09:33:29;;;;;;;29.10;16.70;;;231.10;2252.80;;;;;;4846439;29;20037;-91
2023/01/09 09:35:58;;;;;;;22.75;16.08;;;231.20;2252.80;;;;;;4846296;29;20045;-91
2023/01/09 09:38:23;;;;;;;27.58;16.05;;;231.00;2252.80;;;;;;4846270;29;20069;-90
2023/01/09 09:41:01;;;;;;;26.98;16.90;;;231.30;2252.80;;;;;;4846191;29;20060;-90
2023/01/09 09:47:13;;;;;;;26.70;16.77;;;256.10;2252.80;;;;;;4862539;29;20044;-92
2023/01/09 09:50:14;;;;;;;24.98;17.83;;;256.10;2252.80;;;;;;4842407;29;20129;-88
2023/01/09 09:52:51;;;;;;;29.67;22.35;;;256.20;2252.80;;;;;;4846435;29;20036;-92
2023/01/09 09:55:26;;;;;;;37.28;26.02;;;256.30;2252.80;;;;;;4846081;29;20474;-89
2023/01/09 09:57:53;;;;;;;27.38;18.75;;;256.40;2252.80;;;;;;4846066;29;20033;-89
2023/01/09 10:00:21;;;;;;;15.98;9.73;;;256.60;2252.80;;;;;;4845323;29;20053;-89
2023/01/09 10:02:59;;;;;;;16.80;9.40;;;281.60;2278.40;;;;;;4845389;29;20030;-88
2023/01/09 10:05:33;;;;;;;12.80;8.52;;;281.70;2278.40;;;;;;4845854;29;20033;-86
2023/01/09 10:08:03;;;;;;;14.75;10.20;;;;;;;;;;4862230;29;20025;-87
2023/01/09 10:10:29;;;;;;;18.08;11.82;;;;;;;;;;4844846;29;20022;-88
2023/01/09 10:12:58;;;;;;;15.02;10.27;;;282.20;2278.40;;;;;;4845702;29;20061;-94
2023/01/09 10:15:51;;;;;;;16.35;9.98;;;282.20;2278.40;;;;;;4845527;29;20084;-89
2023/01/09 10:18:17;;;;;;;10.65;7.95;;;282.10;2278.40;;;;;;4845304;29;20053;-89
2023/01/09 10:20:51;;;;;;;16.40;10.38;;;282.20;2278.40;;;;;;4845403;29;20065;-89
2023/01/09 10:23:20;;;;;;;23.05;11.75;;;282.10;2278.40;;;;;;4845749;29;20151;-89
2023/01/09 10:25:55;;;;;;;20.88;14.00;;;282.20;2278.40;;;;;;4862299;29;20108;-91
2023/01/09 10:28:49;;;;;;;22.95;16.13;;;282.10;2278.40;;;;;;4845477;29;20059;-91
2023/01/09 10:31:33;;;;;;;16.58;11.48;;;;;;;;;;4845838;29;20030;-91
2023/01/09 10:34:13;;;;;;;14.05;9.70;;;;;;;;;;4845690;29;20098;-90
2023/01/09 10:36:59;;;;;;;12.93;8.80;;;;;;;;;;4862251;29;20780;-91
2023/01/09 10:39:34;;;;;;;15.25;10.98;;;;;;;;;;4842015;29;20045;-90
2023/01/09 10:42:10;;;;;;;14.57;9.35;;;;;;;;;;4845637;29;20033;-91
2023/01/09 10:44:56;;;;;;;18.27;9.50;;;;;;;;;;4845804;29;20074;-91
2023/01/09 10:47:25;;;;;;;14.05;8.65;;;;;;;;;;4845498;29;20530;-91
2023/01/09 10:49:53;;;;;;;18.17;10.27;;;282.40;2278.40;;;;;;4845655;29;20458;-91
2023/01/09 10:52:24;;;;;;;18.08;12.18;;;282.30;2278.40;;;;;;4845870;29;20026;-95
2023/01/09 10:55:02;;;;;;;15.15;9.43;;;282.20;2278.40;;;;;;4846036;29;20128;-93
2023/01/09 10:58:00;;;;;;;14.35;9.00;;;282.30;2278.40;;;;;;4846035;29;20029;-94
2023/01/09 11:00:26;;;;;;;38.13;19.73;;;282.30;2278.40;;;;;;4841827;29;20053;-93
2023/01/09 11:02:53;;;;;;;20.27;12.27;;;282.30;2278.40;;;;;;4849476;29;20068;-92
2023/01/09 11:05:27;;;;;;;18.63;13.27;;;282.40;2278.40;;;;;;4848602;29;20093;-93
2023/01/09 11:08:10;;;;;;;21.17;12.05;;;282.40;2278.40;;;;;;4846548;29;20367;-89
2023/01/09 11:10:47;;;;;;;13.55;9.20;;;282.30;2278.40;;;;;;4845688;29;20037;-93
2023/01/09 11:13:22;;;;;;;15.80;11.27;;;282.30;2278.40;;;;;;4845551;29;20151;-94
2023/01/09 11:16:05;;;;;;;15.68;11.07;;;282.40;2278.40;;;;;;4845579;29;20040;-92
2023/01/09 11:18:31;;;;;;;;;;;282.40;2278.40;;;;;;4845890;29;20029;-92
2023/01/09 11:21:20;;;;;;;16.52;9.45;;;282.50;2278.40;;;;;;4845893;29;19908;-93
2023/01/09 11:23:48;;;;;;;16.88;10.55;;;;;;;;;;4848573;29;20040;-92
2023/01/09 11:26:25;;;;;;;19.42;12.43;;;;;;;;;;4848654;29;20142;-94
2023/01/09 11:29:10;;;;;;;21.70;11.30;;;;;;;;;;4865649;29;20028;-93
2023/01/09 11:31:36;;;;;;;21.05;13.98;;;;;;;;;;4848862;29;20022;-93
2023/01/09 11:34:03;;;;;;;12.93;9.18;;;;;;;;;;4848517;29;20025;-93
2023/01/09 11:36:30;;;;;;;21.50;13.38;;;;;;;;;;4861549;29;20393;-93
2023/01/09 11:39:01;;;;;;;16.90;10.98;;;;;;;;;;4882256;29;20438;-93
2023/01/09 11:41:29;;;;;;;16.42;11.23;;;;;;;;;;4882365;29;20136;-91
2023/01/09 11:43:57;;;;;;;21.98;12.40;;;;;;;;;;4881414;29;20052;-92
2023/01/09 11:46:29;;;;;;;14.75;9.57;;;;;;;;;;4882250;29;20029;-96
2023/01/09 11:48:56;;;;;;;12.07;8.07;;;;;;;;;;4882389;29;20029;-92
2023/01/09 11:51:27;;;;;;;14.18;8.75;;;;;;;;;;4882347;29;20040;-94
2023/01/09 11:53:56;;;;;;;13.30;9.45;;;;;;;;;;4882262;29;20064;-87
2023/01/09 11:56:22;;;;;;;18.42;8.80;;;;;;;;;;4881604;29;20029;-87
2023/01/09 11:58:48;;;;;;;13.25;9.00;;;;;;;;;;4881785;29;20048;-91
2023/01/09 12:01:33;;;;;;;16.30;12.07;;;;;;;;;;4878554;29;20053;-89
2023/01/09 12:04:18;;;;;;;17.13;9.45;;;;;;;;;;4878917;29;20038;-91
2023/01/09 12:06:54;;;;;;;18.15;12.35;;;;;;;;;;4878819;29;20037;-91
2023/01/09 12:09:28;;;;;;;20.70;15.30;;;;;;;;;;4878596;29;20089;-92
2023/01/09 12:11:56;;;;;;;15.20;11.63;;;;;;;;;;4878860;29;20026;-91
2023/01/09 12:14:22;;;;;;;20.08;11.23;;;;;;;;;;4863763;29;20453;-91
2023/01/09 12:16:49;;;;;;;21.10;12.68;;;;;;;;;;4878555;29;20021;-91
2023/01/09 12:19:39;;;;;;;13.40;9.50;;;;;;;;;;4878474;29;20025;-91
2023/01/09 12:22:11;;;;;;;96.75;16.85;;;;;;;;;;4878352;29;20034;-90
2023/01/09 12:24:37;;;;;;;17.33;10.15;;;;;;;;;;4878377;29;20029;-90
2023/01/09 12:27:15;;;;;;;17.38;10.25;;;;;;;;;;4878498;29;20036;-92
2023/01/09 12:29:48;;;;;;;15.20;10.13;;;;;;;;;;4878428;29;20469;-92
2023/01/09 12:32:14;;;;;;;19.92;12.27;;;;;;;;;;4878464;29;20025;-92
2023/01/09 12:34:46;;;;;;;15.68;9.57;;;;;;;;;;4877622;29;20049;-95
2023/01/09 12:37:19;;;;;;;20.15;11.70;;;;;;;;;;4878277;29;20072;-94
2023/01/09 12:39:48;;;;;;;16.02;10.55;;;;;;;;;;4878265;29;20037;-94
2023/01/09 12:42:23;;;;;;;16.13;9.43;;;;;;;;;;4878322;29;20033;-93
2023/01/09 12:44:56;;;;;;;16.60;11.80;;;;;;;;;;4879653;29;20029;-93
2023/01/09 12:47:22;;;;;;;;;;;;;;;;;;4879073;29;20120;-91
2023/01/09 12:49:48;;;;;;;14.40;9.95;;;;;;;;;;4878566;29;20011;-93
2023/01/09 12:52:23;;;;;;;15.07;9.88;;;;;;;;;;4878249;29;20034;-93
2023/01/09 12:54:53;;;;;;;16.50;9.65;;;;;;;;;;4878230;29;20045;-92
2023/01/09 12:57:24;;;;;;;14.48;9.05;;;;;;;;;;4878051;29;20382;-90
2023/01/09 12:59:53;;;;;;;21.77;9.35;;;;;;;;;;4878052;29;20029;-94
2023/01/09 13:02:33;;;;;;;17.83;10.10;;;;;;;;;;4862657;29;20371;-93
2023/01/09 13:05:02;;;;;;;13.27;10.25;;;;;;;;;;4862314;29;20036;-91
2023/01/09 13:07:32;;;;;;;12.25;8.77;;;;;;;;;;4861820;29;20026;-91
2023/01/09 13:10:29;;;;;;;17.27;9.82;;;;;;;;;;4861851;29;20029;-91
2023/01/09 13:12:57;;;;;;;15.32;10.07;;;;;;;;;;4845329;29;20046;-91
2023/01/09 13:15:32;;;;;;;14.73;9.38;;;;;;;;;;4862332;29;20051;-92
2023/01/09 13:18:06;;;;;;;15.38;10.20;;;;;;;;;;4861984;29;20026;-88
2023/01/09 13:20:38;;;;;;;16.20;9.55;;;;;;;;;;4861821;29;20017;-91
2023/01/09 13:23:05;;;;;;;15.27;9.80;;;;;;;;;;4855138;29;20029;-90
2023/01/09 13:25:57;;;;;;;14.90;9.95;;;;;;;;;;4843216;29;20132;-89
2023/01/09 13:28:26;;;;;;;18.35;11.60;;;;;;;;;;4841000;29;20057;-91
2023/01/09 13:31:01;;;;;;;21.95;11.90;;;;;;;;;;4843195;29;20057;-90
2023/01/09 13:33:28;;;;;;;15.85;10.77;;;;;;;;;;4843128;29;20025;-92
2023/01/09 13:35:56;;;;;;;14.35;8.93;;;;;;;;;;4842746;29;20133;-89
2023/01/09 13:38:30;;;;;;;13.82;8.40;;;;;;;;;;4842136;29;20033;-85
2023/01/09 13:44:00;;;;;;;14.20;8.85;;;;;;;;;;4843470;29;20051;-88
2023/01/09 13:46:35;;;;;;;17.85;10.07;;;;;;;;;;4841082;29;20131;-89
2023/01/09 13:49:02;;;;;;;17.33;10.40;;;;;;;;;;4842275;29;20065;-89
2023/01/09 13:51:43;;;;;;;21.45;13.13;;;;;;;;;;4842505;29;20022;-90
2023/01/09 13:54:09;;;;;;;24.27;14.73;;;;;;;;;;4842708;29;20029;-89
2023/01/09 13:57:11;;;;;;;26.77;15.23;;;;;;;;;;4842447;29;20078;-90
2023/01/09 13:59:37;;;;;;;16.17;9.65;;;;;;;;;;4804361;29;20491;-88
2023/01/09 14:02:03;;;;;;;12.07;8.98;;;;;;;;;;4848021;29;20046;-89
2023/01/09 14:04:37;;;;;;;14.98;10.10;;;;;;;;;;4857600;29;20034;-89
2023/01/09 14:07:16;;;;;;;22.15;12.73;;;;;;;;;;4857980;29;20026;-89
2023/01/09 14:10:05;;;;;;;14.32;10.68;;;;;;;;;;4857985;29;20058;-92
2023/01/09 14:12:39;;;;;;;15.38;11.82;;;;;;;;;;4858072;29;20030;-90
2023/01/09 14:15:06;;;;;;;16.95;11.52;;;;;;;;;;4857706;29;20037;-89
2023/01/09 14:17:36;;;;;;;17.52;12.30;;;;;;;;;;4857941;29;20117;-89
2023/01/09 14:20:05;;;;;;;17.42;11.45;;;;;;;;;;4858077;29;20037;-91
2023/01/09 14:22:34;;;;;;;18.08;11.07;;;;;;;;;;4858259;29;20030;-90
2023/01/09 14:25:08;;;;;;;24.05;12.10;;;;;;;;;;4858191;29;20034;-92
2023/01/09 14:27:50;;;;;;;30.42;17.85;;;;;;;;;;4858179;29;20034;-91
2023/01/09 14:30:25;;;;;;;34.55;20.80;;;;;;;;;;4858294;29;20030;-91
2023/01/09 14:33:15;;;;;;;35.25;22.58;;;;;;;;;;4843274;29;20497;-89
2023/01/09 14:35:47;;;;;;;28.65;16.63;;;;;;;;;;4852221;29;20045;-85
2023/01/09 14:38:16;;;;;;;19.65;13.77;;;;;;;;;;4857065;29;20187;-84
2023/01/09 14:40:48;;;;;;;20.65;13.02;;;;;;;;;;4856825;29;20026;-86
2023/01/09 14:43:20;;;;;;;21.30;12.70;;;;;;;;;;4857319;29;20030;-85
2023/01/09 14:45:47;;;;;;;36.47;20.63;;;;;;;;;;4857038;29;20030;-84
2023/01/09 14:48:13;;;;;;;59.20;35.45;;;;;;;;;;4856498;29;20026;-84
2023/01/09 14:50:45;;;;;;;50.50;36.08;;;;;;;;;;4857042;29;20113;-82
2023/01/09 14:53:20;;;;;;;19.20;15.13;;;;;;;;;;4856441;29;20058;-80
2023/01/09 14:55:50;;;;;;;20.05;14.68;;;;;;;;;;4857050;29;20475;-83
2023/01/09 14:58:20;;;;;;;15.75;12.60;;;;;;;;;;4860298;29;20057;-85
2023/01/09 15:00:58;;;;;;;17.02;12.23;;;;;;;;;;4852647;29;20128;-86
2023/01/09 15:03:25;;;;;;;19.83;15.50;;;;;;;;;;4863306;29;20029;-83
2023/01/09 15:05:52;;;;;;;24.88;19.08;;;;;;;;;;4863620;29;20030;-90
2023/01/09 15:08:21;;;;;;;36.15;25.65;;;;;;;;;;4864634;29;20057;-91
2023/01/09 15:10:48;;;;;;;30.95;21.83;;;;;;;;;;4864482;29;20474;-92
2023/01/09 15:13:19;;;;;;;24.20;17.70;;;;;;;;;;4864284;29;20033;-90
2023/01/09 15:15:47;;;;;;;36.05;25.98;;;;;;;;;;4863835;29;20034;-88
2023/01/09 15:18:18;;;;;;;36.80;25.15;;;;;;;;;;4864216;29;20039;-91
2023/01/09 15:20:45;;;;;;;42.58;27.92;;;;;;;;;;4865586;29;20033;-91
2023/01/09 15:23:21;;;;;;;44.85;31.13;;;;;;;;;;4864330;29;20022;-92
2023/01/09 15:25:48;;;;;;;27.35;19.88;;;;;;;;;;4864372;29;20029;-93
2023/01/09 15:28:29;;;;;;;35.17;25.00;;;;;;;;;;4864970;29;20029;-91
2023/01/09 15:31:01;;;;;;;22.63;18.35;;;;;;;;;;4864764;29;20026;-91
2023/01/09 15:33:28;;;;;;;26.05;20.42;;;;;;;;;;4864514;29;20097;-92
2023/01/09 15:36:00;;;;;;;24.10;18.00;;;;;;;;;;4865200;29;20037;-89
2023/01/09 15:38:27;;;;;;;32.42;27.08;;;;;;;;;;4863595;29;20458;-90
2023/01/09 15:40:58;;;;;;;28.05;17.48;;;;;;;;;;4863538;29;20040;-91
2023/01/09 15:43:25;;;;;;;26.80;21.10;;;;;;;;;;4863410;29;20025;-90
2023/01/09 15:45:52;;;;;;;27.60;19.98;;;;;;;;;;4848116;29;20156;-90
2023/01/09 15:48:18;;;;;;;25.48;16.55;;;;;;;;;;4863248;29;20157;-90
2023/01/09 15:50:46;;;;;;;24.77;16.02;;;;;;;;;;4862749;29;20029;-91
2023/01/09 15:53:17;;;;;;;26.55;16.05;;;;;;;;;;4863300;29;20033;-90
2023/01/09 15:55:45;;;;;;;17.80;11.80;;;;;;;;;;4863364;29;20081;-91
2023/01/09 15:58:30;;;;;;;20.13;13.02;;;;;;;;;;4863543;29;20124;-90
2023/01/09 16:00:58;;;;;;;23.98;13.40;;;;;;;;;;4863072;29;20058;-90
2023/01/09 16:03:25;;;;;;;19.17;12.27;;;;;;;;;;4863457;29;20033;-89
2023/01/09 16:06:04;;;;;;;21.77;12.30;;;;;;;;;;4863567;29;20092;-91
2023/01/09 16:08:32;;;;;;;21.35;12.65;;;;;;;;;;4862546;29;20413;-93
2023/01/09 16:11:00;;;;;;;19.85;13.82;;;;;;;;;;4863080;29;20026;-90
2023/01/09 16:13:28;;;;;;;17.15;11.65;;;;;;;;;;4871202;29;20033;-93
2023/01/09 16:15:55;;;;;;;20.35;12.00;;;;;;;;;;4866436;29;20037;-94
2023/01/09 16:18:36;;;;;;;31.05;17.30;;;;;;;;;;4866223;29;20383;-92
2023/01/09 16:21:03;;;;;;;23.77;14.00;;;;;;;;;;4866526;29;20032;-93
2023/01/09 16:23:31;;;;;;;24.33;18.40;;;;;;;;;;4866520;29;20497;-94
2023/01/09 16:26:11;;;;;;;30.83;18.75;;;;;;;;;;4866417;29;20060;-93
2023/01/09 16:28:39;;;;;;;20.42;13.05;;;;;;;;;;4866768;29;20032;-92
2023/01/09 16:31:22;;;;;;;34.80;20.15;;;;;;;;;;4866639;29;20029;-93
2023/01/09 16:33:51;;;;;;;29.27;19.13;;;;;;;;;;4866716;29;20080;-93
2023/01/09 16:36:17;;;;;;;45.85;31.98;;;;;;;;;;4866484;29;20035;-92
2023/01/09 16:38:44;;;;;;;28.92;21.17;;;;;;;;;;4866346;29;20033;-93
2023/01/09 16:44:02;;;;;;;21.55;14.65;;;;;;;;;;4882982;29;20122;-93
2023/01/09 16:46:28;;;;;;;21.65;15.50;;;;;;;;;;4866080;29;20025;-93
2023/01/09 16:48:55;;;;;;;33.83;22.95;;;;;;;;;;4865911;29;20029;-93
2023/01/09 16:51:21;;;;;;;27.00;17.50;;;;;;;;;;4865540;29;20557;-93
2023/01/09 16:53:48;;;;;;;23.67;15.25;;;;;;;;;;4879699;29;20064;-92
2023/01/09 16:56:17;;;;;;;24.63;15.88;;;;;;;;;;4888235;29;20035;-90
2023/01/09 16:58:43;;;;;;;22.17;13.80;;;;;;;;;;4888779;29;20041;-91
2023/01/09 17:01:12;;;;;;;20.83;14.65;;;;;;;;;;4887965;29;20041;-91
2023/01/09 17:03:38;;;;;;;43.42;21.95;;;;;;;;;;4888477;29;20013;-90
2023/01/09 17:06:06;;;;;;;23.60;14.57;;;;;;;;;;4870550;29;20029;-91
2023/01/09 17:08:43;;;;;;;19.55;14.00;;;;;;;;;;4882660;29;20062;-92
2023/01/09 17:11:14;;;;;;;16.42;10.50;;;;;;;;;;4886182;29;20391;-93
2023/01/09 17:13:41;;;;;;;55.95;31.98;;;;;;;;;;4888724;29;20072;-94
2023/01/09 17:16:07;;;;;;;31.10;19.48;;;;;;;;;;4887789;29;20085;-94
2023/01/09 17:18:33;;;;;;;34.25;21.70;;;;;;;;;;4885114;29;20484;-93
2023/01/09 17:20:59;;;;;;;27.48;19.67;;;;;;;;;;4878900;29;20064;-93
2023/01/09 17:23:26;;;;;;;38.17;23.48;;;;;;;;;;4847329;29;20037;-93
2023/01/09 17:28:43;;;;;;;26.20;18.35;;;;;;;;;;4871541;29;20037;-93
2023/01/09 17:31:10;;;;;;;21.63;14.07;;;;;;;;;;4851457;29;20033;-92
2023/01/09 17:33:37;;;;;;;24.10;14.85;;;;;;;;;;4852964;29;20026;-91
2023/01/09 17:36:05;;;;;;;24.75;18.20;;;;;;;;;;4854872;29;20459;-94
2023/01/09 17:38:31;;;;;;;18.58;12.02;;;;;;;;;;4851588;29;20068;-93
2023/01/09 17:40:57;;;;;;;23.70;14.90;;;;;;;;;;4846732;29;20573;-96
2023/01/09 17:43:23;;;;;;;17.70;13.05;;;;;;;;;;4846426;29;20057;-93
2023/01/09 17:45:50;;;;;;;18.95;13.15;;;;;;;;;;4864361;29;20033;-94
2023/01/09 17:48:19;;;;;;;19.10;14.00;;;;;;;;;;4880666;29;20017;-96
2023/01/09 17:50:46;;;;;;;20.08;14.50;;;;;;;;;;4881887;29;20040;-96
2023/01/09 17:53:14;;;;;;;20.38;15.38;;;;;;;;;;4882526;29;20422;-93
2023/01/09 17:55:41;;;;;;;20.10;13.32;;;;;;;;;;4880745;29;20088;-95
2023/01/09 17:58:07;;;;;;;17.23;12.48;;;;;;;;;;4880931;29;20029;-94
2023/01/09 18:00:35;;;;;;;17.02;11.48;;;;;;;;;;4880167;29;20136;-94
2023/01/09 18:03:06;;;;;;;20.70;14.27;;;;;;;;;;4880209;29;20032;-93
2023/01/09 18:05:33;;;;;;;17.48;13.05;;;;;;;;;;4880362;29;20025;-94
2023/01/09 18:07:59;;;;;;;16.10;11.95;;;;;;;;;;4880213;29;20036;-94
2023/01/09 18:10:26;;;;;;;20.83;11.73;;;;;;;;;;4880025;29;20029;-94
2023/01/09 18:12:53;;;;;;;15.30;10.60;;;;;;;;;;4879925;29;20063;-94
2023/01/09 18:15:19;;;;;;;17.52;12.20;;;;;;;;;;4880723;29;20029;-94
2023/01/09 18:17:46;;;;;;;13.48;10.60;;;;;;;;;;4879961;29;20061;-93
2023/01/09 18:20:12;;;;;;;15.32;10.60;;;;;;;;;;4879778;29;20021;-95
2023/01/09 18:22:38;;;;;;;16.33;12.20;;;;;;;;;;4880206;29;20057;-95
2023/01/09 18:25:04;;;;;;;20.85;12.32;;;;;;;;;;4880209;29;20041;-93
2023/01/09 18:27:31;;;;;;;20.30;12.82;;;;;;;;;;4879924;29;20025;-94
2023/01/09 18:29:59;;;;;;;23.52;15.20;;;;;;;;;;4879963;29;20145;-95
2023/01/09 18:32:25;;;;;;;24.92;15.48;;;;;;;;;;4883238;29;20029;-93
2023/01/09 18:34:51;;;;;;;16.45;12.38;;;;;;;;;;4883609;29;20381;-94
2023/01/09 18:37:17;;;;;;;24.42;15.45;;;;;;;;;;4883905;29;20370;-94
2023/01/09 18:39:43;;;;;;;26.38;17.67;;;;;;;;;;4883815;29;20022;-93
2023/01/09 18:42:10;;;;;;;25.90;17.15;;;;;;;;;;4884127;29;20029;-94
2023/01/09 18:44:36;;;;;;;28.65;16.92;;;;;;;;;;4883725;29;20077;-93
2023/01/09 18:47:02;;;;;;;22.58;16.02;;;;;;;;;;4883724;29;20553;-93
2023/01/09 18:49:28;;;;;;;24.77;16.20;;;;;;;;;;4883628;29;20054;-93
2023/01/09 18:51:55;;;;;;;22.83;14.40;;;;;;;;;;4883510;29;20025;-94
2023/01/09 18:54:21;;;;;;;24.33;15.52;;;;;;;;;;4883227;29;20029;-95
2023/01/09 18:56:47;;;;;;;23.27;16.00;;;;;;;;;;4883062;29;20068;-94
2023/01/09 18:59:13;;;;;;;32.58;25.00;;;;;;;;;;4883191;29;20029;-93
2023/01/09 19:01:40;;;;;;;45.53;28.67;;;;;;;;;;4882710;29;20084;-92
2023/01/09 19:04:07;;;;;;;41.22;28.40;;;;;;;;;;4883806;29;20025;-93
2023/01/09 19:06:33;;;;;;;32.75;23.98;;;;;;;;;;4882766;29;20029;-89
2023/01/09 19:08:59;;;;;;;23.65;18.67;;;;;;;;;;4882372;29;20371;-89
2023/01/09 19:11:25;;;;;;;22.85;17.30;;;;;;;;;;4883552;29;20032;-88
2023/01/09 19:13:51;;;;;;;15.98;13.07;;;;;;;;;;4882514;29;20413;-92
2023/01/09 19:16:18;;;;;;;16.73;12.30;;;;;;;;;;4879433;29;20032;-92
2023/01/09 19:18:44;;;;;;;20.83;14.80;;;;;;;;;;4883139;29;20029;-91
2023/01/09 19:21:12;;;;;;;22.67;16.42;;;;;;;;;;4882308;29;20036;-91
2023/01/09 19:23:39;;;;;;;24.70;17.00;;;;;;;;;;4882349;29;20049;-91
2023/01/09 19:26:07;;;;;;;22.00;16.30;;;;;;;;;;4883397;29;20033;-91
2023/01/09 19:28:34;;;;;;;18.98;14.93;;;;;;;;;;4874604;29;20034;-91
2023/01/09 19:31:00;;;;;;;20.33;14.27;;;;;;;;;;4848696;29;20036;-94
2023/01/09 19:33:26;;;;;;;22.10;15.63;;;;;;;;;;4848157;29;20030;-91
2023/01/09 19:35:52;;;;;;;30.42;19.23;;;;;;;;;;4848144;29;20033;-90
2023/01/09 19:38:19;;;;;;;18.80;15.07;;;;;;;;;;4848557;29;20057;-92
2023/01/09 19:40:45;;;;;;;20.90;15.65;;;;;;;;;;4848313;29;20030;-89
2023/01/09 19:43:24;;;;;;;20.20;16.05;;;;;;;;;;4847830;29;20033;-90
2023/01/09 19:45:50;;;;;;;25.35;19.40;;;;;;;;;;4847920;29;20072;-88
2023/01/09 19:48:16;;;;;;;18.25;14.35;;;;;;;;;;4864506;29;20458;-86
2023/01/09 19:50:42;;;;;;;24.67;18.15;;;;;;;;;;4847719;29;20036;-89
2023/01/09 19:53:09;;;;;;;26.83;17.02;;;;;;;;;;4847964;29;20037;-89
2023/01/09 19:55:37;;;;;;;27.27;20.20;;;;;;;;;;4847860;29;20516;-90
2023/01/09 19:58:03;;;;;;;26.60;17.75;;;;;;;;;;4848016;29;20033;-92
2023/01/09 20:00:29;;;;;;;32.72;23.80;;;;;;;;;;4847783;29;20113;-89
2023/01/09 20:02:56;;;;;;;24.63;19.15;;;;;;;;;;4847852;29;20040;-90
2023/01/09 20:05:22;;;;;;;32.63;23.20;;;;;;;;;;4847925;29;20051;-89
2023/01/09 20:07:52;;;;;;;27.77;20.33;;;;;;;;;;4847624;29;20141;-90
2023/01/09 20:10:19;;;;;;;24.20;18.45;;;;;;;;;;4847732;29;20029;-94
2023/01/09 20:12:45;;;;;;;32.15;24.30;;;;;;;;;;4847705;29;20037;-89
2023/01/09 20:15:13;;;;;;;30.17;22.92;;;;;;;;;;4847335;29;20033;-89
2023/01/09 20:17:40;;;;;;;26.77;19.73;;;;;;;;;;4847255;29;20026;-89
2023/01/09 20:20:06;;;;;;;22.08;16.02;;;;;;;;;;4847210;29;20037;-92
2023/01/09 20:22:32;;;;;;;26.38;18.38;;;;;;;;;;4847336;29;20088;-91
2023/01/09 20:24:58;;;;;;;21.05;14.88;;;;;;;;;;4847774;29;20030;-91
2023/01/09 20:27:24;;;;;;;24.02;15.80;;;;;;;;;;4847867;29;20033;-94
2023/01/09 20:29:51;;;;;;;18.05;12.95;;;;;;;;;;4847662;29;20026;-93
2023/01/09 20:32:17;;;;;;;30.50;19.30;;;;;;;;;;4847535;29;20492;-90
2023/01/09 20:34:43;;;;;;;20.15;15.57;;;;;;;;;;4847551;29;20036;-94
2023/01/09 20:37:10;;;;;;;18.30;12.88;;;;;;;;;;4847503;29;20116;-90
2023/01/09 20:39:36;;;;;;;16.85;13.02;;;;;;;;;;4848448;29;20459;-95